Track Сибагатов Тимур

Time Latitude Longitude Accuracy (66% radius in meters) Altitude (meters) Speed (km/hour) Bearing (degrees) Battery (%) GPS flag
05:45:08 54.462249 53.528104 0 0 0 0 1 delete
05:45:07 54.462249 53.528104 0 0 0 0 1 delete
05:45:06 54.462248 53.528104 0 0 0 0 1 delete
05:45:02 54.462247 53.528104 0 0 0 0 1 delete
05:44:57 54.462258 53.528054 0 0 0 0 1 delete
05:44:52 54.462263 53.527865 0 0 0 0 1 delete
05:44:45 54.462282 53.527614 0 0 0 0 1 delete
05:44:43 54.462296 53.527538 0 0 0 0 1 delete
05:44:39 54.462358 53.527377 0 0 0 0 1 delete
05:44:34 54.462451 53.527256 0 0 0 0 1 delete
05:44:29 54.462446 53.527245 0 0 0 0 1 delete
05:44:24 54.462339 53.527374 0 0 0 0 1 delete
05:44:20 54.462280 53.527581 0 0 0 0 1 delete
05:44:16 54.462261 53.527770 0 0 0 0 1 delete
05:44:12 54.462257 53.527940 0 0 0 0 1 delete
05:44:06 54.462268 53.528191 0 0 0 0 1 delete
05:44:05 54.462275 53.528208 0 0 0 0 1 delete
05:43:58 54.462291 53.528234 0 0 0 0 1 delete
05:43:53 54.462288 53.528177 0 0 0 0 1 delete
05:43:49 54.462308 53.527925 0 0 0 0 1 delete
05:43:44 54.462355 53.527591 0 0 0 0 1 delete
05:43:43 54.462363 53.527528 0 0 0 0 1 delete
05:43:40 54.462393 53.527360 0 0 0 0 1 delete
05:43:35 54.462533 53.527193 0 0 0 0 1 delete
05:43:34 54.462545 53.527166 0 0 0 0 1 delete
05:43:29 54.462636 53.527029 0 0 0 0 1 delete
05:43:25 54.462684 53.526961 0 0 0 0 1 delete
05:43:21 54.462792 53.526876 0 0 0 0 1 delete
05:43:17 54.462873 53.526721 0 0 0 0 1 delete
05:43:12 54.462972 53.526540 0 0 0 0 1 delete
05:43:06 54.463125 53.526270 0 0 0 0 1 delete
05:43:03 54.463167 53.526086 0 0 0 0 1 delete
05:42:59 54.463155 53.525818 0 0 0 0 1 delete
05:42:55 54.463123 53.525645 0 0 0 0 1 delete
05:42:51 54.463094 53.525503 0 0 0 0 1 delete
05:42:48 54.463050 53.525410 0 0 0 0 1 delete
05:42:43 54.462881 53.525298 0 0 0 0 1 delete
05:42:41 54.462811 53.525204 0 0 0 0 1 delete
05:42:36 54.462699 53.525008 0 0 0 0 1 delete
05:42:33 54.462635 53.524878 0 0 0 0 1 delete
05:42:29 54.462566 53.524778 0 0 0 0 1 delete
05:42:24 54.462540 53.524578 0 0 0 0 1 delete
05:42:21 54.462467 53.524505 0 0 0 0 1 delete
05:42:17 54.462356 53.524433 0 0 0 0 1 delete
05:42:14 54.462300 53.524383 0 0 0 0 1 delete
05:42:13 54.462287 53.524353 0 0 0 0 1 delete
05:42:09 54.462229 53.524247 0 0 0 0 1 delete
05:42:05 54.462139 53.524165 0 0 0 0 1 delete
05:42:00 54.462013 53.524104 0 0 0 0 1 delete
05:41:59 54.461995 53.524088 0 0 0 0 1 delete